| time (UTC) | temp F | wind direction | speed MPH | gust MPH | rain 1hr in | rain 24hr in | rain mn in | humidity % | barometer mb |
| 20260505210509 | 74 | 246 | 7.0 | 18.0 | 0.00 | 0.56 | 0.23 | 41 | 1011.6 |
| 20260505210007 | 74 | 219 | 6.0 | 17.0 | 0.00 | 0.56 | 0.23 | 41 | 1011.6 |
| 20260505205739 | 72 | 190 | 6.0 | 17.0 | 0.00 | 0.56 | 0.23 | 44 | 1011.7 |
| 20260505205008 | 71 | 259 | 5.0 | 14.0 | 0.00 | 0.56 | 0.23 | 42 | 1011.7 |
| 20260505204509 | 71 | 234 | 5.0 | 13.0 | 0.00 | 0.56 | 0.23 | 45 | 1011.7 |
| 20260505204006 | 70 | 250 | 5.0 | 13.0 | 0.00 | 0.56 | 0.23 | 44 | 1011.8 |
| 20260505203740 | 69 | 270 | 2.0 | 9.0 | 0.00 | 0.56 | 0.23 | 49 | 1011.8 |
| 20260505203238 | 69 | 189 | 1.0 | 5.0 | 0.00 | 0.56 | 0.23 | 54 | 1011.9 |
| 20260505202512 | 69 | 221 | 3.0 | 6.0 | 0.00 | 0.56 | 0.23 | 55 | 1012.0 |
| 20260505202508 | 69 | 183 | 2.0 | 6.0 | 0.00 | 0.56 | 0.23 | 53 | 1012.0 |
| 20260505201739 | 69 | 232 | 3.0 | 6.0 | 0.00 | 0.56 | 0.23 | 54 | 1012.2 |
| 20260505201006 | 69 | 191 | 3.0 | 7.0 | 0.00 | 0.56 | 0.23 | 54 | 1012.2 |
| 20260505200507 | 69 | 229 | 3.0 | 8.0 | 0.00 | 0.56 | 0.23 | 55 | 1012.2 |
| 20260505200005 | 69 | 227 | 4.0 | 8.0 | 0.00 | 0.56 | 0.23 | 57 | 1012.2 |
| 20260505195505 | 69 | 214 | 3.0 | 7.0 | 0.00 | 0.56 | 0.23 | 55 | 1012.3 |
| 20260505195008 | 69 | 284 | 3.0 | 8.0 | 0.00 | 0.56 | 0.23 | 54 | 1012.2 |
| 20260505194505 | 70 | 243 | 4.0 | 9.0 | 0.00 | 0.56 | 0.23 | 56 | 1012.2 |
| 20260505194005 | 71 | 244 | 4.0 | 9.0 | 0.00 | 0.56 | 0.23 | 55 | 1012.1 |
| 20260505193738 | 71 | 232 | 4.0 | 9.0 | 0.00 | 0.56 | 0.23 | 56 | 1012.3 |
| 20260505193003 | 71 | 331 | 2.0 | 6.0 | 0.00 | 0.56 | 0.23 | 55 | 1012.3 |
| 20260505192504 | 70 | 266 | 3.0 | 8.0 | 0.00 | 0.56 | 0.23 | 56 | 1012.5 |
| 20260505192005 | 70 | 324 | 4.0 | 9.0 | 0.00 | 0.56 | 0.23 | 57 | 1012.5 |
| 20260505191503 | 70 | 320 | 4.0 | 9.0 | 0.00 | 0.56 | 0.23 | 58 | 1012.6 |
| 20260505191003 | 69 | 307 | 3.0 | 9.0 | 0.00 | 0.56 | 0.23 | 60 | 1012.7 |
| 20260505190506 | 69 | 246 | 4.0 | 9.0 | 0.00 | 0.56 | 0.23 | 60 | 1012.8 |
| 20260505190004 | 69 | 302 | 3.0 | 7.0 | 0.00 | 0.56 | 0.23 | 58 | 1012.9 |
| 20260505185505 | 70 | 277 | 3.0 | 9.0 | 0.00 | 0.56 | 0.23 | 59 | 1013.0 |
| 20260505185004 | 70 | 296 | 3.0 | 9.0 | 0.00 | 0.56 | 0.23 | 58 | 1013.1 |
| 20260505184504 | 70 | 182 | 3.0 | 8.0 | 0.00 | 0.56 | 0.23 | 57 | 1013.2 |
| 20260505184001 | 70 | 245 | 2.0 | 6.0 | 0.00 | 0.56 | 0.23 | 60 | 1013.2 |
| 20260505183502 | 69 | 251 | 2.0 | 6.0 | 0.00 | 0.56 | 0.23 | 58 | 1013.2 |
| 20260505183001 | 69 | 177 | 2.0 | 4.0 | 0.00 | 0.56 | 0.23 | 61 | 1013.3 |
| 20260505182501 | 69 | 292 | 1.0 | 5.0 | 0.00 | 0.56 | 0.23 | 59 | 1013.3 |
| 20260505182002 | 68 | 288 | 1.0 | 5.0 | 0.00 | 0.56 | 0.23 | 59 | 1013.3 |
| 20260505181501 | 68 | 259 | 1.0 | 5.0 | 0.00 | 0.56 | 0.23 | 64 | 1013.3 |
| 20260505181003 | 67 | 174 | 1.0 | 5.0 | 0.00 | 0.56 | 0.23 | 62 | 1013.5 |
| 20260505180502 | 67 | 317 | 0.0 | 2.0 | 0.00 | 0.56 | 0.23 | 62 | 1013.5 |
| 20260505180001 | 66 | 211 | 1.0 | 4.0 | 0.00 | 0.56 | 0.23 | 63 | 1013.6 |
| 20260505175502 | 66 | 195 | 1.0 | 4.0 | 0.00 | 0.56 | 0.23 | 63 | 1013.8 |
| 20260505175000 | 66 | 275 | 1.0 | 4.0 | 0.00 | 0.56 | 0.23 | 62 | 1013.8 |
| 20260505174500 | 66 | 254 | 1.0 | 4.0 | 0.00 | 0.56 | 0.23 | 63 | 1013.8 |
| 20260505173958 | 66 | 200 | 1.0 | 3.0 | 0.00 | 0.56 | 0.23 | 64 | 1013.6 |
| 20260505173459 | 66 | 241 | 1.0 | 4.0 | 0.00 | 0.56 | 0.23 | 66 | 1013.6 |
| 20260505172957 | 66 | 319 | 1.0 | 4.0 | 0.00 | 0.56 | 0.23 | 67 | 1013.8 |
| 20260505172459 | 65 | 233 | 1.0 | 3.0 | 0.00 | 0.56 | 0.23 | 69 | 1013.9 |
| 20260505171957 | 65 | 186 | 1.0 | 3.0 | 0.00 | 0.56 | 0.23 | 69 | 1013.9 |
| 20260505171458 | 65 | 205 | 1.0 | 3.0 | 0.00 | 0.56 | 0.23 | 69 | 1013.8 |
| 20260505171227 | 64 | 261 | 1.0 | 3.0 | 0.00 | 0.56 | 0.23 | 70 | 1013.6 |
| 20260505170455 | 64 | 292 | 1.0 | 2.0 | 0.00 | 0.56 | 0.23 | 69 | 1013.8 |
| 20260505170227 | 64 | 324 | 1.0 | 3.0 | 0.00 | 0.56 | 0.23 | 71 | 1013.6 |
| 20260505165455 | 64 | 261 | 1.0 | 3.0 | 0.00 | 0.56 | 0.23 | 74 | 1013.6 |
| 20260505164957 | 63 | 248 | 1.0 | 3.0 | 0.00 | 0.56 | 0.23 | 76 | 1013.6 |
| 20260505164457 | 63 | 229 | 1.0 | 3.0 | 0.00 | 0.56 | 0.23 | 78 | 1013.6 |
| 20260505163956 | 63 | 217 | 1.0 | 3.0 | 0.00 | 0.56 | 0.23 | 78 | 1013.6 |
| 20260505163455 | 63 | 296 | 1.0 | 3.0 | 0.00 | 0.56 | 0.23 | 79 | 1013.8 |
| 20260505162954 | 62 | 215 | 1.0 | 3.0 | 0.00 | 0.56 | 0.23 | 80 | 1013.8 |
| 20260505162455 | 62 | 257 | 1.0 | 3.0 | 0.00 | 0.56 | 0.23 | 83 | 1013.8 |
| 20260505161951 | 62 | 215 | 1.0 | 3.0 | 0.00 | 0.56 | 0.23 | 81 | 1013.8 |
| 20260505161449 | 62 | 244 | 0.0 | 2.0 | 0.00 | 0.56 | 0.23 | 81 | 1013.8 |
| 20260505160950 | 62 | 253 | 0.0 | 2.0 | 0.00 | 0.56 | 0.23 | 85 | 1013.8 |
| 20260505160448 | 62 | 183 | 0.0 | 2.0 | 0.00 | 0.56 | 0.23 | 86 | 1013.6 |
| 20260505152949 | 61 | 257 | 0.0 | 2.0 | 0.00 | 0.56 | 0.23 | 90 | 1013.5 |
| 20260505152446 | 61 | 241 | 0.0 | 2.0 | 0.00 | 0.56 | 0.23 | 91 | 1013.4 |
| 20260505151948 | 60 | 279 | 1.0 | 2.0 | 0.00 | 0.56 | 0.23 | 92 | 1013.4 |
| 20260505151445 | 60 | 301 | 0.0 | 2.0 | 0.00 | 0.56 | 0.23 | 92 | 1013.4 |
| 20260505151214 | 60 | 301 | 0.0 | 2.0 | 0.00 | 0.56 | 0.23 | 92 | 1013.4 |
| 20260505150442 | 60 | 301 | 0.0 | 2.0 | 0.00 | 0.56 | 0.23 | 93 | 1013.5 |
| 20260505140431 | 59 | 280 | 0.0 | 2.0 | 0.01 | 0.56 | 0.23 | 94 | 1013.0 |
| 20260505124932 | 58 | 280 | 0.0 | 2.0 | 0.01 | 0.55 | 0.22 | 93 | 1012.6 |
| 20260505124431 | 58 | 280 | 0.0 | 2.0 | 0.01 | 0.55 | 0.22 | 93 | 1012.7 |
| 20260505123931 | 58 | 280 | 0.0 | 2.0 | 0.01 | 0.55 | 0.22 | 94 | 1012.7 |
| 20260505123431 | 58 | 280 | 0.0 | 1.0 | 0.01 | 0.55 | 0.22 | 93 | 1012.5 |
| 20260505122931 | 58 | 95 | 0.0 | 2.0 | 0.01 | 0.55 | 0.22 | 93 | 1012.1 |
| 20260505122430 | 58 | 95 | 0.0 | 2.0 | 0.01 | 0.55 | 0.22 | 93 | 1012.3 |
| 20260505121931 | 58 | 92 | 0.0 | 0.0 | 0.01 | 0.55 | 0.22 | 93 | 1012.2 |
| 20260505121700 | 58 | 92 | 0.0 | 0.0 | 0.00 | 0.54 | 0.21 | 93 | 1012.1 |
| 20260505120931 | 58 | 92 | 0.0 | 0.0 | 0.00 | 0.54 | 0.21 | 93 | 1012.1 |
| 20260505120430 | 58 | 92 | 0.0 | 1.0 | 0.01 | 0.54 | 0.21 | 92 | 1012.0 |
| 20260505115931 | 58 | 92 | 0.0 | 2.0 | 0.01 | 0.54 | 0.21 | 92 | 1011.8 |
| 20260505115436 | 58 | 92 | 0.0 | 0.0 | 0.02 | 0.54 | 0.21 | 91 | 1012.1 |
| 20260505115430 | 58 | 92 | 0.0 | 2.0 | 0.02 | 0.54 | 0.21 | 92 | 1012.0 |
| 20260505114429 | 58 | 92 | 0.0 | 2.0 | 0.02 | 0.54 | 0.21 | 91 | 1012.0 |
| 20260505113925 | 58 | 92 | 0.0 | 2.0 | 0.02 | 0.54 | 0.21 | 90 | 1011.9 |
| 20260505113426 | 58 | 120 | 0.0 | 3.0 | 0.02 | 0.54 | 0.21 | 90 | 1012.3 |
| 20260505112927 | 58 | 120 | 0.0 | 3.0 | 0.02 | 0.54 | 0.21 | 86 | 1012.5 |
| 20260505112426 | 58 | 119 | 0.0 | 2.0 | 0.02 | 0.54 | 0.21 | 86 | 1012.3 |
| 20260505111925 | 58 | 9 | 1.0 | 2.0 | 0.03 | 0.54 | 0.21 | 86 | 1012.0 |
| 20260505111424 | 58 | 339 | 1.0 | 2.0 | 0.03 | 0.54 | 0.21 | 86 | 1012.1 |
| 20260505110924 | 58 | 345 | 1.0 | 2.0 | 0.03 | 0.54 | 0.21 | 86 | 1012.3 |
| 20260505110423 | 58 | 319 | 0.0 | 2.0 | 0.02 | 0.53 | 0.20 | 88 | 1012.3 |
| 20260505101917 | 58 | 355 | 2.0 | 4.0 | 0.04 | 0.51 | 0.18 | 90 | 1013.1 |
| 20260505101416 | 58 | 296 | 1.0 | 3.0 | 0.04 | 0.51 | 0.18 | 91 | 1013.3 |
| 20260505101148 | 58 | 323 | 1.0 | 3.0 | 0.06 | 0.51 | 0.18 | 91 | 1013.4 |
| 20260505100418 | 58 | 323 | 0.0 | 2.0 | 0.06 | 0.51 | 0.18 | 91 | 1013.8 |
| 20260505095916 | 57 | 344 | 0.0 | 2.0 | 0.06 | 0.51 | 0.18 | 90 | 1013.8 |
| 20260505095421 | 57 | 44 | 1.0 | 3.0 | 0.06 | 0.50 | 0.17 | 90 | 1013.5 |
| 20260505095416 | 57 | 44 | 0.0 | 2.0 | 0.07 | 0.51 | 0.18 | 90 | 1013.6 |
| 20260505094415 | 58 | 12 | 1.0 | 3.0 | 0.07 | 0.50 | 0.17 | 92 | 1013.5 |
| 20260505094146 | 58 | 0 | 1.0 | 3.0 | 0.07 | 0.50 | 0.17 | 93 | 1013.6 |
| 20260505094032 | 58 | 30 | 1.0 | 2.0 | 0.07 | 0.49 | 0.16 | 93 | 1014.2 |
| 20260505092913 | 58 | 34 | 1.0 | 2.0 | 0.06 | 0.48 | 0.15 | 93 | 1014.3 |
| 20260505092645 | 58 | 30 | 1.0 | 2.0 | 0.07 | 0.48 | 0.15 | 93 | 1014.5 |
| 20260505091915 | 58 | 20 | 1.0 | 2.0 | 0.06 | 0.47 | 0.14 | 94 | 1014.3 |
| 20260505091414 | 58 | 61 | 1.0 | 2.0 | 0.06 | 0.47 | 0.14 | 94 | 1014.4 |
| 20260505090914 | 58 | 45 | 1.0 | 2.0 | 0.05 | 0.45 | 0.14 | 93 | 1014.4 |
| 20260505090647 | 58 | 71 | 0.0 | 2.0 | 0.05 | 0.45 | 0.12 | 93 | 1014.7 |
| 20260505085913 | 58 | 103 | 1.0 | 2.0 | 0.06 | 0.45 | 0.12 | 93 | 1014.7 |
| 20260505085411 | 58 | 92 | 1.0 | 3.0 | 0.05 | 0.44 | 0.11 | 93 | 1014.8 |
| 20260505084910 | 58 | 113 | 1.0 | 3.0 | 0.06 | 0.44 | 0.11 | 93 | 1015.0 |
| 20260505084411 | 58 | 75 | 0.0 | 2.0 | 0.06 | 0.43 | 0.10 | 93 | 1015.3 |
| 20260505083909 | 58 | 75 | 0.0 | 0.0 | 0.06 | 0.43 | 0.10 | 93 | 1015.4 |
| 20260505083407 | 58 | 51 | 0.0 | 0.0 | 0.06 | 0.42 | 0.09 | 93 | 1015.5 |
| 20260505082909 | 58 | 51 | 0.0 | 0.0 | 0.06 | 0.42 | 0.09 | 93 | 1015.7 |
| 20260505082640 | 58 | 51 | 0.0 | 0.0 | 0.06 | 0.41 | 0.09 | 93 | 1015.6 |
| 20260505082137 | 58 | 51 | 0.0 | 0.0 | 0.07 | 0.41 | 0.08 | 93 | 1015.6 |
| 20260505081637 | 58 | 51 | 0.0 | 0.0 | 0.07 | 0.41 | 0.08 | 93 | 1015.7 |
| 20260505080910 | 59 | 51 | 0.0 | 0.0 | 0.07 | 0.40 | 0.07 | 92 | 1015.9 |
| 20260505080904 | 58 | 51 | 0.0 | 0.0 | 0.06 | 0.40 | 0.07 | 92 | 1015.8 |
| 20260505075904 | 59 | 51 | 0.0 | 0.0 | 0.06 | 0.39 | 0.06 | 93 | 1016.0 |
| 20260505075405 | 59 | 51 | 0.0 | 0.0 | 0.06 | 0.39 | 0.06 | 93 | 1016.3 |
| 20260505074905 | 59 | 51 | 0.0 | 0.0 | 0.05 | 0.38 | 0.05 | 93 | 1016.3 |
| 20260505074404 | 59 | 51 | 0.0 | 0.0 | 0.04 | 0.37 | 0.04 | 93 | 1016.4 |
| 20260505073905 | 59 | 51 | 0.0 | 0.0 | 0.05 | 0.37 | 0.04 | 93 | 1016.4 |
| 20260505073405 | 59 | 51 | 0.0 | 0.0 | 0.05 | 0.36 | 0.03 | 93 | 1016.3 |
| 20260505072905 | 59 | 51 | 0.0 | 0.0 | 0.05 | 0.36 | 0.03 | 93 | 1016.3 |
| 20260505072409 | 59 | 51 | 0.0 | 0.0 | 0.04 | 0.34 | 0.01 | 92 | 1016.1 |
| 20260505072404 | 59 | 51 | 0.0 | 0.0 | 0.04 | 0.35 | 0.02 | 92 | 1016.1 |
| 20260505071401 | 59 | 51 | 0.0 | 0.0 | 0.05 | 0.34 | 0.01 | 92 | 1016.1 |
| 20260505070904 | 59 | 51 | 0.0 | 2.0 | 0.05 | 0.34 | 0.01 | 93 | 1016.1 |
| 20260505070634 | 59 | 51 | 0.0 | 2.0 | 0.05 | 0.33 | 0.00 | 93 | 1016.0 |
| 20260505065903 | 59 | 51 | 0.0 | 2.0 | 0.05 | 0.33 | 0.33 | 92 | 1015.9 |
| 20260505065408 | 59 | 51 | 0.0 | 0.0 | 0.06 | 0.33 | 0.33 | 92 | 1015.9 |
| 20260505065402 | 59 | 51 | 0.0 | 2.0 | 0.05 | 0.33 | 0.33 | 92 | 1015.9 |
| 20260505065019 | 59 | 51 | 0.0 | 0.0 | 0.06 | 0.33 | 0.33 | 92 | 1015.8 |
| 20260505063901 | 59 | 51 | 0.0 | 0.0 | 0.05 | 0.32 | 0.32 | 93 | 1015.7 |
| 20260505063632 | 59 | 51 | 0.0 | 0.0 | 0.05 | 0.31 | 0.31 | 93 | 1015.7 |
| 20260505062902 | 58 | 51 | 0.0 | 0.0 | 0.05 | 0.31 | 0.31 | 92 | 1015.7 |
| 20260505062359 | 58 | 51 | 0.0 | 0.0 | 0.05 | 0.31 | 0.31 | 91 | 1015.9 |
| 20260505061900 | 58 | 51 | 0.0 | 0.0 | 0.04 | 0.30 | 0.30 | 91 | 1015.9 |
| 20260505061401 | 58 | 51 | 0.0 | 0.0 | 0.04 | 0.29 | 0.30 | 91 | 1016.0 |
| 20260505061131 | 58 | 51 | 0.0 | 0.0 | 0.04 | 0.29 | 0.29 | 91 | 1016.0 |
| 20260505060400 | 58 | 51 | 0.0 | 0.0 | 0.03 | 0.28 | 0.28 | 91 | 1015.9 |
| 20260505055900 | 58 | 51 | 0.0 | 2.0 | 0.03 | 0.28 | 0.28 | 90 | 1015.8 |
| 20260505055359 | 58 | 51 | 0.0 | 2.0 | 0.04 | 0.28 | 0.28 | 90 | 1015.8 |
| 20260505055131 | 58 | 51 | 1.0 | 2.0 | 0.03 | 0.27 | 0.27 | 91 | 1015.6 |
| 20260505054359 | 59 | 17 | 1.0 | 2.0 | 0.03 | 0.27 | 0.27 | 91 | 1015.6 |
| 20260505054130 | 59 | 35 | 0.0 | 2.0 | 0.03 | 0.27 | 0.27 | 90 | 1015.8 |
| 20260505053359 | 59 | 101 | 0.0 | 2.0 | 0.02 | 0.26 | 0.26 | 90 | 1016.0 |
| 20260505052858 | 59 | 124 | 1.0 | 3.0 | 0.02 | 0.26 | 0.26 | 90 | 1016.0 |
| 20260505052403 | 59 | 113 | 1.0 | 3.0 | 0.03 | 0.26 | 0.26 | 89 | 1015.8 |
| 20260505052359 | 59 | 124 | 1.0 | 3.0 | 0.03 | 0.26 | 0.26 | 89 | 1016.0 |
| 20260505051356 | 60 | 110 | 0.0 | 2.0 | 0.02 | 0.25 | 0.25 | 90 | 1015.8 |
| 20260505050856 | 59 | 269 | 0.0 | 0.0 | 0.02 | 0.25 | 0.25 | 89 | 1015.9 |
| 20260505050627 | 59 | 269 | 0.0 | 2.0 | 0.02 | 0.25 | 0.25 | 90 | 1015.8 |
| 20260505041354 | 59 | 245 | 0.0 | 4.0 | 0.00 | 0.23 | 0.23 | 88 | 1015.8 |
| 20260505040852 | 59 | 175 | 0.0 | 4.0 | 0.01 | 0.23 | 0.23 | 87 | 1015.8 |
| 20260505040351 | 59 | 161 | 0.0 | 2.0 | 0.02 | 0.23 | 0.23 | 88 | 1015.7 |
| 20260505035858 | 59 | 110 | 0.0 | 2.0 | 0.03 | 0.23 | 0.23 | 87 | 1015.5 |
| 20260505035851 | 59 | 161 | 0.0 | 2.0 | 0.03 | 0.23 | 0.23 | 88 | 1015.6 |
| 20260505034851 | 59 | 147 | 0.0 | 1.0 | 0.04 | 0.23 | 0.23 | 86 | 1015.4 |
| 20260505034353 | 59 | 147 | 1.0 | 2.0 | 0.04 | 0.23 | 0.23 | 84 | 1015.2 |
| 20260505033851 | 59 | 147 | 1.0 | 4.0 | 0.04 | 0.23 | 0.23 | 84 | 1015.1 |
| 20260505033351 | 58 | 292 | 1.0 | 4.0 | 0.05 | 0.23 | 0.23 | 78 | 1014.8 |
| 20260505032851 | 58 | 20 | 1.0 | 5.0 | 0.06 | 0.23 | 0.23 | 84 | 1014.8 |
| 20260505032351 | 57 | 28 | 2.0 | 5.0 | 0.06 | 0.23 | 0.23 | 84 | 1014.8 |
| 20260505031849 | 57 | 38 | 1.0 | 3.0 | 0.06 | 0.23 | 0.23 | 84 | 1015.1 |
| 20260505031355 | 58 | 345 | 1.0 | 2.0 | 0.07 | 0.22 | 0.22 | 79 | 1015.9 |
| 20260505031349 | 58 | 42 | 0.0 | 2.0 | 0.07 | 0.23 | 0.23 | 84 | 1015.6 |
| 20260505030349 | 58 | 310 | 1.0 | 3.0 | 0.07 | 0.21 | 0.21 | 76 | 1016.1 |
| 20260505025849 | 58 | 242 | 0.0 | 3.0 | 0.08 | 0.20 | 0.20 | 79 | 1016.1 |
| 20260505025347 | 58 | 308 | 0.0 | 3.0 | 0.08 | 0.20 | 0.20 | 78 | 1016.3 |
| 20260505024848 | 58 | 308 | 1.0 | 3.0 | 0.07 | 0.19 | 0.19 | 76 | 1016.3 |
| 20260505024348 | 58 | 334 | 1.0 | 4.0 | 0.08 | 0.19 | 0.19 | 74 | 1016.0 |
| 20260505023847 | 59 | 301 | 1.0 | 4.0 | 0.09 | 0.19 | 0.19 | 75 | 1016.0 |
| 20260505023346 | 59 | 323 | 1.0 | 3.0 | 0.08 | 0.18 | 0.18 | 75 | 1016.1 |
| 20260505022845 | 59 | 315 | 0.0 | 2.0 | 0.07 | 0.17 | 0.18 | 79 | 1016.1 |
| 20260505022344 | 59 | 267 | 1.0 | 7.0 | 0.08 | 0.17 | 0.17 | 77 | 1016.3 |
| 20260505021844 | 60 | 257 | 1.0 | 7.0 | 0.08 | 0.17 | 0.17 | 77 | 1016.3 |
| 20260505021344 | 60 | 345 | 1.0 | 4.0 | 0.07 | 0.16 | 0.16 | 73 | 1016.0 |
| 20260505020845 | 60 | 283 | 1.0 | 6.0 | 0.07 | 0.15 | 0.15 | 71 | 1016.0 |
| 20260505020345 | 60 | 306 | 2.0 | 6.0 | 0.06 | 0.14 | 0.14 | 68 | 1015.8 |
| 20260505015845 | 61 | 293 | 2.0 | 6.0 | 0.04 | 0.12 | 0.12 | 69 | 1015.8 |
| 20260505015344 | 61 | 254 | 2.0 | 6.0 | 0.05 | 0.12 | 0.12 | 68 | 1015.8 |
| 20260505015115 | 61 | 286 | 3.0 | 6.0 | 0.05 | 0.12 | 0.12 | 70 | 1015.7 |
| 20260505014344 | 62 | 250 | 2.0 | 6.0 | 0.04 | 0.11 | 0.11 | 67 | 1015.8 |
| 20260505013845 | 62 | 228 | 2.0 | 6.0 | 0.04 | 0.10 | 0.10 | 68 | 1015.6 |
| 20260505013345 | 62 | 284 | 1.0 | 4.0 | 0.04 | 0.10 | 0.10 | 67 | 1015.3 |
| 20260505012844 | 62 | 280 | 1.0 | 5.0 | 0.05 | 0.10 | 0.10 | 70 | 1015.1 |
| 20260505012349 | 62 | 282 | 1.0 | 5.0 | 0.05 | 0.09 | 0.09 | 65 | 1014.7 |
| 20260505012344 | 62 | 300 | 1.0 | 5.0 | 0.04 | 0.09 | 0.09 | 66 | 1015.0 |
| 20260505011615 | 62 | 321 | 1.0 | 5.0 | 0.06 | 0.09 | 0.09 | 63 | 1014.6 |
| 20260505010845 | 62 | 348 | 0.0 | 3.0 | 0.05 | 0.08 | 0.08 | 70 | 1014.6 |
| 20260505010345 | 62 | 34 | 0.0 | 3.0 | 0.05 | 0.08 | 0.08 | 77 | 1014.7 |
| 20260505005844 | 63 | 66 | 0.0 | 3.0 | 0.05 | 0.08 | 0.08 | 75 | 1014.7 |
| 20260505005343 | 63 | 300 | 0.0 | 4.0 | 0.04 | 0.07 | 0.07 | 70 | 1014.8 |
| 20260505004844 | 63 | 300 | 0.0 | 4.0 | 0.04 | 0.07 | 0.07 | 67 | 1014.8 |
| 20260505004618 | 64 | 264 | 1.0 | 4.0 | 0.05 | 0.07 | 0.07 | 67 | 1015.0 |
| 20260505003844 | 64 | 274 | 2.0 | 7.0 | 0.04 | 0.06 | 0.06 | 63 | 1015.0 |
| 20260505003346 | 65 | 289 | 2.0 | 7.0 | 0.05 | 0.06 | 0.06 | 60 | 1014.7 |
| 20260505002845 | 65 | 307 | 3.0 | 8.0 | 0.05 | 0.05 | 0.05 | 63 | 1014.7 |
| 20260505002343 | 66 | 296 | 4.0 | 8.0 | 0.05 | 0.05 | 0.05 | 56 | 1014.6 |
| 20260505001845 | 66 | 332 | 3.0 | 8.0 | 0.04 | 0.04 | 0.04 | 55 | 1014.5 |
| 20260505001618 | 65 | 277 | 3.0 | 8.0 | 0.03 | 0.03 | 0.03 | 54 | 1014.2 |
| 20260505000844 | 65 | 297 | 4.0 | 9.0 | 0.03 | 0.03 | 0.03 | 57 | 1014.1 |
| 20260505000345 | 65 | 9 | 4.0 | 9.0 | 0.03 | 0.03 | 0.03 | 59 | 1014.0 |
| 20260504235844 | 65 | 340 | 4.0 | 9.0 | 0.03 | 0.03 | 0.03 | 59 | 1013.8 |
| 20260504235617 | 64 | 15 | 4.0 | 9.0 | 0.03 | 0.03 | 0.03 | 60 | 1013.9 |
| 20260504235114 | 64 | 323 | 4.0 | 11.0 | 0.03 | 0.03 | 0.03 | 62 | 1014.0 |
| 20260504234344 | 65 | 340 | 4.0 | 11.0 | 0.02 | 0.02 | 0.02 | 57 | 1014.2 |
| 20260504233844 | 66 | 208 | 5.0 | 17.0 | 0.02 | 0.02 | 0.02 | 56 | 1014.5 |
| 20260504233345 | 68 | 293 | 5.0 | 17.0 | 0.01 | 0.01 | 0.01 | 50 | 1014.7 |
| 20260504232845 | 70 | 289 | 6.0 | 17.0 | 0.00 | 0.00 | 0.00 | 49 | 1014.5 |
| 20260504232343 | 73 | 252 | 7.0 | 17.0 | 0.00 | 0.00 | 0.00 | 39 | 1014.3 |
| 20260504231844 | 75 | 268 | 7.0 | 13.0 | 0.00 | 0.00 | 0.00 | 30 | 1014.2 |
| 20260504231344 | 76 | 281 | 7.0 | 17.0 | 0.00 | 0.00 | 0.00 | 29 | 1014.0 |
| 20260504230844 | 76 | 275 | 7.0 | 17.0 | 0.00 | 0.00 | 0.00 | 25 | 1013.9 |
| 20260504230615 | 76 | 286 | 6.0 | 15.0 | 0.00 | 0.00 | 0.00 | 26 | 1013.6 |
| 20260504225849 | 76 | 238 | 6.0 | 19.0 | 0.00 | 0.00 | 0.00 | 25 | 1013.6 |
| 20260504225844 | 76 | 205 | 5.0 | 19.0 | 0.00 | 0.00 | 0.00 | 24 | 1013.8 |
| 20260504224845 | 78 | 246 | 7.0 | 13.0 | 0.00 | 0.00 | 0.00 | 23 | 1013.5 |
| 20260504224346 | 78 | 276 | 6.0 | 16.0 | 0.00 | 0.00 | 0.00 | 22 | 1013.5 |
| 20260504223843 | 78 | 298 | 6.0 | 16.0 | 0.00 | 0.00 | 0.00 | 22 | 1013.6 |
| 20260504223344 | 78 | 280 | 6.0 | 19.0 | 0.00 | 0.00 | 0.00 | 22 | 1013.6 |
| 20260504222843 | 79 | 205 | 6.0 | 19.0 | 0.00 | 0.00 | 0.00 | 20 | 1013.6 |
| 20260504222616 | 80 | 237 | 5.0 | 12.0 | 0.00 | 0.00 | 0.00 | 20 | 1013.4 |
| 20260504221844 | 80 | 267 | 5.0 | 11.0 | 0.00 | 0.00 | 0.00 | 20 | 1013.5 |
| 20260504221344 | 80 | 264 | 4.0 | 11.0 | 0.00 | 0.00 | 0.00 | 20 | 1013.4 |
| 20260504220841 | 81 | 141 | 5.0 | 10.0 | 0.00 | 0.00 | 0.00 | 20 | 1013.6 |
| 20260504220343 | 81 | 290 | 5.0 | 11.0 | 0.00 | 0.00 | 0.00 | 20 | 1013.6 |
| 20260504220113 | 81 | 269 | 5.0 | 11.0 | 0.00 | 0.00 | 0.00 | 20 | 1013.6 |
| 20260504215343 | 82 | 263 | 5.0 | 10.0 | 0.00 | 0.00 | 0.00 | 20 | 1013.5 |
| 20260504215115 | 82 | 291 | 5.0 | 10.0 | 0.00 | 0.00 | 0.00 | 19 | 1013.3 |
| 20260504214342 | 82 | 315 | 4.0 | 11.0 | 0.00 | 0.00 | 0.00 | 19 | 1013.3 |
| 20260504213843 | 82 | 274 | 4.0 | 11.0 | 0.00 | 0.00 | 0.00 | 19 | 1013.3 |
| 20260504213343 | 82 | 296 | 5.0 | 11.0 | 0.00 | 0.00 | 0.00 | 18 | 1013.2 |
| 20260504212841 | 82 | 254 | 6.0 | 13.0 | 0.00 | 0.00 | 0.00 | 18 | 1013.3 |
| 20260504212342 | 83 | 291 | 4.0 | 13.0 | 0.00 | 0.00 | 0.00 | 18 | 1013.3 |
| 20260504211844 | 83 | 254 | 4.0 | 9.0 | 0.00 | 0.00 | 0.00 | 18 | 1013.3 |
| 20260504211343 | 82 | 298 | 4.0 | 10.0 | 0.00 | 0.00 | 0.00 | 18 | 1013.5 |
| 20260504210843 | 82 | 296 | 4.0 | 10.0 | 0.00 | 0.00 | 0.00 | 18 | 1013.6 |